Time;durP1;ratioP1;P1;durP2;ratioP2;P2;SDS_P1;SDS_P2;PMS_P1;PMS_P2;Temp;Humidity;BMP_temperature;BMP_pressure;BME280_temperature;BME280_humidity;BME280_pressure;Samples;Min_cycle;Max_cycle;Signal;HPM_P1;HPM_P2
2021/11/04 00:01:34;;;;;;;9.23;5.32;;;;;;;;;;5047817;28;20084;-64
2021/11/04 00:04:00;;;;;;;9.25;4.95;;;;;;;;;;5048821;28;20025;-64
2021/11/04 00:06:26;;;;;;;7.47;4.28;;;;;;;;;;5050325;28;20054;-64
2021/11/04 00:08:52;;;;;;;5.82;3.50;;;;;;;;;;5049248;28;20404;-64
2021/11/04 00:11:18;;;;;;;6.50;4.07;;;;;;;;;;5048366;28;20113;-64
2021/11/04 00:13:44;;;;;;;6.10;3.70;;;;;;;;;;5048859;28;20025;-65
2021/11/04 00:16:11;;;;;;;5.57;2.95;;;;;;;;;;5048700;28;20547;-65
2021/11/04 00:18:37;;;;;;;7.47;3.60;;;;;;;;;;5049525;28;20099;-65
2021/11/04 00:21:03;;;;;;;7.15;4.45;;;;;;;;;;5050785;28;20461;-65
2021/11/04 00:23:29;;;;;;;8.77;5.63;;;;;;;;;;5048456;28;20069;-65
2021/11/04 00:25:55;;;;;;;9.55;5.53;;;;;;;;;;5047393;28;20063;-65
2021/11/04 00:28:22;;;;;;;10.23;4.80;;;;;;;;;;5048382;28;20025;-65
2021/11/04 00:30:48;;;;;;;10.20;4.85;;;;;;;;;;5048502;28;20052;-66
2021/11/04 00:33:14;;;;;;;9.75;4.55;;;;;;;;;;5051169;28;20539;-66
2021/11/04 00:35:40;;;;;;;7.65;4.63;;;;;;;;;;5046990;28;20438;-65
2021/11/04 00:38:06;;;;;;;11.32;4.80;;;;;;;;;;5047304;28;20029;-65
2021/11/04 00:40:32;;;;;;;9.48;3.80;;;;;;;;;;5047396;28;20032;-65
2021/11/04 00:42:58;;;;;;;8.50;4.32;;;;;;;;;;5046837;28;20028;-65
2021/11/04 00:45:25;;;;;;;8.45;3.92;;;;;;;;;;5049824;28;20021;-65
2021/11/04 00:47:52;;;;;;;7.10;4.03;;;;;;;;;;5048060;28;20021;-65
2021/11/04 00:50:18;;;;;;;7.03;4.13;;;;;;;;;;5047124;28;20106;-65
2021/11/04 00:52:44;;;;;;;9.63;5.10;;;;;;;;;;5048742;28;20036;-64
2021/11/04 00:55:11;;;;;;;10.90;4.97;;;;;;;;;;5047176;28;20488;-64
2021/11/04 00:57:37;;;;;;;8.85;4.88;;;;;;;;;;5047846;28;20360;-64
2021/11/04 01:00:04;;;;;;;11.63;5.38;;;;;;;;;;5049439;28;20457;-64
2021/11/04 01:02:30;;;;;;;9.27;5.75;;;;;;;;;;5046922;28;20029;-65
2021/11/04 01:04:56;;;;;;;12.10;6.35;;;;;;;;;;5047072;28;20415;-64
2021/11/04 01:07:22;;;;;;;9.13;5.20;;;;;;;;;;5046609;28;20036;-64
2021/11/04 01:09:48;;;;;;;10.02;5.65;;;;;;;;;;5046859;28;20111;-65
2021/11/04 01:12:14;;;;;;;10.05;5.15;;;;;;;;;;5050300;28;20025;-65
2021/11/04 01:14:40;;;;;;;7.57;4.78;;;;;;;;;;5047078;28;20456;-65
2021/11/04 01:17:06;;;;;;;10.90;5.32;;;;;;;;;;5046483;28;20104;-65
2021/11/04 01:19:32;;;;;;;9.75;5.47;;;;;;;;;;5045378;28;20032;-65
2021/11/04 01:21:58;;;;;;;8.95;5.78;;;;;;;;;;5045779;28;20228;-65
2021/11/04 01:24:24;;;;;;;9.52;5.53;;;;;;;;;;5049363;28;20070;-65
2021/11/04 01:26:50;;;;;;;9.80;5.55;;;;;;;;;;5047965;28;20021;-65
2021/11/04 01:29:16;;;;;;;10.10;5.82;;;;;;;;;;5046122;28;20037;-65
2021/11/04 01:31:42;;;;;;;8.90;5.72;;;;;;;;;;5047890;28;20036;-64
2021/11/04 01:34:08;;;;;;;10.70;5.53;;;;;;;;;;5005873;28;1195288;-65
2021/11/04 01:36:34;;;;;;;11.68;6.20;;;;;;;;;;5048913;28;20029;-64
2021/11/04 01:39:01;;;;;;;11.40;6.00;;;;;;;;;;5049317;28;20052;-64
2021/11/04 01:41:27;;;;;;;10.55;6.07;;;;;;;;;;5047010;28;20435;-64
2021/11/04 01:43:53;;;;;;;10.63;5.88;;;;;;;;;;5047412;28;20147;-64
2021/11/04 01:46:22;;;;;;;8.73;5.80;;;;;;;;;;5047249;28;20040;-64
2021/11/04 01:48:48;;;;;;;9.73;5.60;;;;;;;;;;5031896;28;20397;-64
2021/11/04 01:51:15;;;;;;;10.32;5.63;;;;;;;;;;5050794;28;20025;-64
2021/11/04 01:53:41;;;;;;;8.85;4.90;;;;;;;;;;5047441;28;20502;-64
2021/11/04 01:56:07;;;;;;;6.20;2.78;;;;;;;;;;5046815;28;20029;-64
2021/11/04 01:58:33;;;;;;;4.30;2.15;;;;;;;;;;5047092;28;20083;-64
2021/11/04 02:00:59;;;;;;;4.75;2.33;;;;;;;;;;5046762;28;20030;-64
2021/11/04 02:03:28;;;;;;;5.00;2.40;;;;;;;;;;5049219;28;20029;-64
2021/11/04 02:05:53;;;;;;;;;;;;;;;;;;5048998;28;20518;-64
2021/11/04 02:08:38;;;;;;;3.08;1.80;;;;;;;;;;5047364;28;19908;-64
2021/11/04 02:11:15;;;;;;;6.47;3.35;;;;;;;;;;5047116;28;20036;-64
2021/11/04 02:14:00;;;;;;;5.78;2.95;;;;;;;;;;5047171;28;20025;-64
2021/11/04 02:16:28;;;;;;;6.85;3.22;;;;;;;;;;5047046;28;20032;-64
2021/11/04 02:18:57;;;;;;;5.75;3.10;;;;;;;;;;5046624;28;20107;-64
2021/11/04 02:21:47;;;;;;;6.32;3.22;;;;;;;;;;5047973;28;20481;-64
2021/11/04 02:24:28;;;;;;;5.07;3.00;;;;;;;;;;5045953;28;20041;-64
2021/11/04 02:26:54;;;;;;;9.70;2.88;;;;;;;;;;5050339;28;20047;-64
2021/11/04 02:29:21;;;;;;;4.60;2.03;;;;;;;;;;5046175;28;20037;-64
2021/11/04 02:31:48;;;;;;;3.15;1.65;;;;;;;;;;5050277;28;20118;-64
2021/11/04 02:34:15;;;;;;;3.03;1.90;;;;;;;;;;5050538;28;20190;-64
2021/11/04 02:36:42;;;;;;;8.93;3.95;;;;;;;;;;5051543;28;20032;-63
2021/11/04 02:39:08;;;;;;;8.67;4.33;;;;;;;;;;5053282;28;20102;-64
2021/11/04 02:41:34;;;;;;;7.00;4.10;;;;;;;;;;5049760;28;20094;-64
2021/11/04 02:44:01;;;;;;;6.82;3.65;;;;;;;;;;5050268;28;20087;-64
2021/11/04 02:46:28;;;;;;;6.22;3.45;;;;;;;;;;5050518;28;20021;-64
2021/11/04 02:48:54;;;;;;;5.60;3.22;;;;;;;;;;5050375;28;20499;-64
2021/11/04 02:51:21;;;;;;;5.50;3.53;;;;;;;;;;5052851;28;20377;-64
2021/11/04 02:53:47;;;;;;;4.88;3.00;;;;;;;;;;5050904;28;20037;-64
2021/11/04 02:56:13;;;;;;;6.03;3.25;;;;;;;;;;5049770;28;20076;-64
2021/11/04 02:58:39;;;;;;;5.30;2.60;;;;;;;;;;5050095;28;20400;-64
2021/11/04 03:01:05;;;;;;;3.90;2.33;;;;;;;;;;5049828;28;20021;-64
2021/11/04 03:03:32;;;;;;;3.05;2.17;;;;;;;;;;5051966;28;20033;-64
2021/11/04 03:05:58;;;;;;;4.15;2.83;;;;;;;;;;5051143;28;20029;-64
2021/11/04 03:08:25;;;;;;;5.82;3.33;;;;;;;;;;5049888;28;20021;-64
2021/11/04 03:10:52;;;;;;;7.30;4.25;;;;;;;;;;5048524;28;20540;-64
2021/11/04 03:13:18;;;;;;;6.55;3.85;;;;;;;;;;5049476;28;20380;-64
2021/11/04 03:15:46;;;;;;;4.63;2.55;;;;;;;;;;5050477;28;20033;-64
2021/11/04 03:18:13;;;;;;;5.00;3.15;;;;;;;;;;5049116;28;20059;-64
2021/11/04 03:20:39;;;;;;;5.35;2.40;;;;;;;;;;5049223;28;20234;-64
2021/11/04 03:23:05;;;;;;;6.25;3.30;;;;;;;;;;5049572;28;20366;-64
2021/11/04 03:25:32;;;;;;;4.72;2.97;;;;;;;;;;5049333;28;20397;-64
2021/11/04 03:27:59;;;;;;;7.38;3.53;;;;;;;;;;5049224;28;20055;-64
2021/11/04 03:30:26;;;;;;;6.00;3.60;;;;;;;;;;5050269;28;20047;-64
2021/11/04 03:32:53;;;;;;;5.85;3.35;;;;;;;;;;5050421;28;20353;-64
2021/11/04 03:35:19;;;;;;;7.53;3.75;;;;;;;;;;5048119;28;20491;-64
2021/11/04 03:37:47;;;;;;;7.43;3.88;;;;;;;;;;5049064;28;20049;-64
2021/11/04 03:40:13;;;;;;;8.25;3.83;;;;;;;;;;5048968;28;20027;-64
2021/11/04 03:42:40;;;;;;;6.60;3.85;;;;;;;;;;5049378;28;20036;-64
2021/11/04 03:45:06;;;;;;;8.77;3.90;;;;;;;;;;5051720;28;20092;-64
2021/11/04 03:47:33;;;;;;;6.20;3.70;;;;;;;;;;5049207;28;20036;-64
2021/11/04 03:49:59;;;;;;;5.85;2.97;;;;;;;;;;5050536;28;20116;-65
2021/11/04 03:52:27;;;;;;;6.28;2.88;;;;;;;;;;5048956;28;20064;-64
2021/11/04 03:54:53;;;;;;;6.07;3.25;;;;;;;;;;5048139;28;20470;-64
2021/11/04 03:57:22;;;;;;;4.80;2.72;;;;;;;;;;5049442;28;20033;-64
2021/11/04 03:59:48;;;;;;;5.13;2.83;;;;;;;;;;5051514;28;20108;-64
2021/11/04 04:02:14;;;;;;;7.38;3.15;;;;;;;;;;5048843;28;20298;-64
2021/11/04 04:04:41;;;;;;;6.85;2.75;;;;;;;;;;5048938;28;20053;-64
2021/11/04 04:07:07;;;;;;;4.85;2.70;;;;;;;;;;5048159;28;20026;-64
2021/11/04 04:09:33;;;;;;;6.45;3.40;;;;;;;;;;5050855;28;20343;-64
2021/11/04 04:11:59;;;;;;;6.07;2.58;;;;;;;;;;5050026;28;20033;-64
2021/11/04 04:14:25;;;;;;;5.32;2.95;;;;;;;;;;5048938;28;20453;-64
2021/11/04 04:16:51;;;;;;;7.25;3.13;;;;;;;;;;5048242;28;20063;-63
2021/11/04 04:19:17;;;;;;;7.07;3.72;;;;;;;;;;5048450;28;20464;-64
2021/11/04 04:21:43;;;;;;;5.68;3.00;;;;;;;;;;5048776;28;20060;-64
2021/11/04 04:24:09;;;;;;;8.05;3.53;;;;;;;;;;5051791;28;20031;-64
2021/11/04 04:26:35;;;;;;;5.10;2.85;;;;;;;;;;5047849;28;20021;-64
2021/11/04 04:29:02;;;;;;;5.28;3.13;;;;;;;;;;5047164;28;20396;-64
2021/11/04 04:31:28;;;;;;;5.32;3.10;;;;;;;;;;5048080;28;20090;-64
2021/11/04 04:33:54;;;;;;;6.57;2.72;;;;;;;;;;5048784;28;20397;-64
2021/11/04 04:36:20;;;;;;;6.10;3.50;;;;;;;;;;5050133;28;20029;-64
2021/11/04 04:38:46;;;;;;;7.75;4.25;;;;;;;;;;5050831;28;20128;-64
2021/11/04 04:41:12;;;;;;;7.40;3.72;;;;;;;;;;5049728;28;20036;-64
2021/11/04 04:43:38;;;;;;;6.28;4.00;;;;;;;;;;5049827;28;20025;-64
2021/11/04 04:46:04;;;;;;;8.90;4.30;;;;;;;;;;5047947;28;20075;-64
2021/11/04 04:48:30;;;;;;;8.63;3.92;;;;;;;;;;5050070;28;20124;-64
2021/11/04 04:50:56;;;;;;;5.57;3.60;;;;;;;;;;5049445;28;20028;-64
2021/11/04 04:53:22;;;;;;;8.75;4.38;;;;;;;;;;5047569;28;20032;-64
2021/11/04 04:55:48;;;;;;;4.43;3.03;;;;;;;;;;5047916;28;20036;-64
2021/11/04 04:58:14;;;;;;;5.35;3.30;;;;;;;;;;5047503;28;20032;-63
2021/11/04 05:00:40;;;;;;;8.35;3.10;;;;;;;;;;5048812;28;20034;-64
2021/11/04 05:03:08;;;;;;;6.65;3.28;;;;;;;;;;5050069;28;20181;-64
2021/11/04 05:05:34;;;;;;;7.13;3.43;;;;;;;;;;5048050;28;20020;-63
2021/11/04 05:08:00;;;;;;;6.75;3.85;;;;;;;;;;5047741;28;20029;-64
2021/11/04 05:10:26;;;;;;;6.95;3.28;;;;;;;;;;5047241;28;20037;-64
2021/11/04 05:12:52;;;;;;;6.93;2.90;;;;;;;;;;5047447;28;20091;-64
2021/11/04 05:15:18;;;;;;;4.82;2.97;;;;;;;;;;5050683;28;20021;-64
2021/11/04 05:17:45;;;;;;;7.25;3.22;;;;;;;;;;5048237;28;20017;-64
2021/11/04 05:20:11;;;;;;;5.47;3.10;;;;;;;;;;5047580;28;20025;-64
2021/11/04 05:22:37;;;;;;;2.67;1.70;;;;;;;;;;5045919;28;20029;-64
2021/11/04 05:25:03;;;;;;;4.82;2.10;;;;;;;;;;5047728;28;20037;-64
2021/11/04 05:27:29;;;;;;;4.90;2.60;;;;;;;;;;5050299;28;20048;-64
2021/11/04 05:29:55;;;;;;;4.45;2.15;;;;;;;;;;5048945;28;20117;-64
2021/11/04 05:32:22;;;;;;;3.85;2.05;;;;;;;;;;5047335;28;20036;-65
2021/11/04 05:34:48;;;;;;;6.30;2.58;;;;;;;;;;5047541;28;20036;-64
2021/11/04 05:37:15;;;;;;;3.67;2.30;;;;;;;;;;5046805;28;20032;-64
2021/11/04 05:39:41;;;;;;;5.50;2.90;;;;;;;;;;5048501;28;20031;-64
2021/11/04 05:42:08;;;;;;;8.18;3.50;;;;;;;;;;5049969;28;20056;-64
2021/11/04 05:44:37;;;;;;;7.33;3.70;;;;;;;;;;5047390;28;20044;-65
2021/11/04 05:47:06;;;;;;;6.40;3.15;;;;;;;;;;5047037;28;20277;-64
2021/11/04 05:49:32;;;;;;;5.00;2.67;;;;;;;;;;5047332;28;20048;-64
2021/11/04 05:51:58;;;;;;;8.43;2.85;;;;;;;;;;5047210;28;20350;-64
2021/11/04 05:54:24;;;;;;;6.18;2.88;;;;;;;;;;5057512;28;20035;-64
2021/11/04 05:56:51;;;;;;;7.05;3.35;;;;;;;;;;5047305;28;20033;-64
2021/11/04 05:59:17;;;;;;;6.47;3.63;;;;;;;;;;5046874;28;20465;-64
2021/11/04 06:01:43;;;;;;;4.88;2.92;;;;;;;;;;5047369;28;20071;-64
2021/11/04 06:04:09;;;;;;;5.53;3.38;;;;;;;;;;5047996;28;20025;-65
2021/11/04 06:06:35;;;;;;;8.75;3.78;;;;;;;;;;5052498;28;20040;-64
2021/11/04 06:09:01;;;;;;;6.65;3.55;;;;;;;;;;5052772;28;20072;-64
2021/11/04 06:11:26;;;;;;;6.15;3.00;;;;;;;;;;5050638;28;20509;-64
2021/11/04 06:13:52;;;;;;;6.00;2.60;;;;;;;;;;5050879;28;20036;-65
2021/11/04 06:16:18;;;;;;;6.07;2.90;;;;;;;;;;5050817;28;20112;-65
2021/11/04 06:18:45;;;;;;;8.73;2.78;;;;;;;;;;5051091;28;20108;-64
2021/11/04 06:21:13;;;;;;;6.95;3.10;;;;;;;;;;5053922;28;20028;-64
2021/11/04 06:23:39;;;;;;;11.70;6.00;;;;;;;;;;5049665;28;20081;-64
2021/11/04 06:26:05;;;;;;;10.20;6.53;;;;;;;;;;5050393;28;20025;-65
2021/11/04 06:28:31;;;;;;;9.13;4.78;;;;;;;;;;5049274;28;20036;-65
2021/11/04 06:30:57;;;;;;;5.00;3.13;;;;;;;;;;5050469;28;20056;-64
2021/11/04 06:33:23;;;;;;;5.15;2.72;;;;;;;;;;5053036;28;20116;-65
2021/11/04 06:35:52;;;;;;;5.53;2.70;;;;;;;;;;5052516;28;20158;-65
2021/11/04 06:38:18;;;;;;;6.55;3.28;;;;;;;;;;5049777;28;20029;-64
2021/11/04 06:40:44;;;;;;;5.22;2.90;;;;;;;;;;5051165;28;20025;-64
2021/11/04 06:43:12;;;;;;;5.47;2.40;;;;;;;;;;5051663;28;20358;-64
2021/11/04 06:45:39;;;;;;;3.63;1.75;;;;;;;;;;5049667;28;20124;-63
2021/11/04 06:48:08;;;;;;;6.80;3.87;;;;;;;;;;5052250;28;20036;-64
2021/11/04 06:50:37;;;;;;;7.22;4.00;;;;;;;;;;5050896;28;20037;-63
2021/11/04 06:53:07;;;;;;;8.07;4.05;;;;;;;;;;5051078;28;20021;-63
2021/11/04 06:55:34;;;;;;;7.60;4.35;;;;;;;;;;5049966;28;20037;-64
2021/11/04 06:58:01;;;;;;;7.35;5.05;;;;;;;;;;5050402;28;20033;-64
2021/11/04 07:00:30;;;;;;;12.07;6.75;;;;;;;;;;5052492;28;20036;-64
2021/11/04 07:02:56;;;;;;;;;;;;;;;;;;5051370;28;20032;-64
2021/11/04 07:05:22;;;;;;;10.52;7.30;;;;;;;;;;5049601;28;19909;-64
2021/11/04 07:07:51;;;;;;;12.80;7.13;;;;;;;;;;5049577;28;20053;-65
2021/11/04 07:10:18;;;;;;;14.75;7.40;;;;;;;;;;5051797;28;20508;-65
2021/11/04 07:12:45;;;;;;;12.25;6.68;;;;;;;;;;5048376;28;20108;-65
2021/11/04 07:15:12;;;;;;;11.48;7.00;;;;;;;;;;5051402;28;20025;-64
2021/11/04 07:17:40;;;;;;;13.27;5.88;;;;;;;;;;5047741;28;20090;-65
2021/11/04 07:20:06;;;;;;;12.43;6.18;;;;;;;;;;5048316;28;20174;-65
2021/11/04 07:22:37;;;;;;;14.57;8.38;;;;;;;;;;5048196;28;20029;-65
2021/11/04 07:25:05;;;;;;;10.68;7.28;;;;;;;;;;5055224;28;20029;-66
2021/11/04 07:27:31;;;;;;;60.90;6.45;;;;;;;;;;5051164;28;20021;-64
2021/11/04 07:30:01;;;;;;;11.93;6.53;;;;;;;;;;5050520;28;20037;-64
2021/11/04 07:32:31;;;;;;;12.48;8.23;;;;;;;;;;5049335;28;20025;-64
2021/11/04 07:34:57;;;;;;;15.15;8.20;;;;;;;;;;5048674;28;20071;-64
2021/11/04 07:37:25;;;;;;;13.30;8.70;;;;;;;;;;5049174;28;20477;-65
2021/11/04 07:39:52;;;;;;;11.50;8.45;;;;;;;;;;5049005;28;20024;-64
2021/11/04 07:42:18;;;;;;;11.02;8.23;;;;;;;;;;5052419;28;20057;-64
2021/11/04 07:44:44;;;;;;;24.55;15.60;;;;;;;;;;5049364;28;20543;-64
2021/11/04 07:47:10;;;;;;;14.70;8.82;;;;;;;;;;5043368;28;20029;-64
2021/11/04 07:49:36;;;;;;;13.15;9.07;;;;;;;;;;5036734;28;20116;-64
2021/11/04 07:52:02;;;;;;;15.68;9.10;;;;;;;;;;5046161;28;20018;-64
2021/11/04 07:54:31;;;;;;;11.07;7.57;;;;;;;;;;5038374;28;20029;-64
2021/11/04 07:56:57;;;;;;;9.98;6.70;;;;;;;;;;5045296;28;20017;-64
2021/11/04 07:59:26;;;;;;;10.18;6.60;;;;;;;;;;5047899;28;20045;-64
2021/11/04 08:01:52;;;;;;;11.65;5.10;;;;;;;;;;5048026;28;20032;-64
2021/11/04 08:04:18;;;;;;;7.10;4.32;;;;;;;;;;5050926;28;20086;-65
2021/11/04 08:06:44;;;;;;;6.07;3.90;;;;;;;;;;5047978;28;20510;-65
2021/11/04 08:09:10;;;;;;;5.97;3.35;;;;;;;;;;5051115;28;20265;-65
2021/11/04 08:11:36;;;;;;;4.05;2.90;;;;;;;;;;5047722;28;20025;-64
2021/11/04 08:14:02;;;;;;;8.30;6.13;;;;;;;;;;5050227;28;20029;-64
2021/11/04 08:16:28;;;;;;;4.18;2.78;;;;;;;;;;5058324;28;20028;-64
2021/11/04 08:18:54;;;;;;;3.15;2.30;;;;;;;;;;5048360;28;20025;-64
2021/11/04 08:21:20;;;;;;;4.22;2.53;;;;;;;;;;5051224;28;20029;-64
2021/11/04 08:23:46;;;;;;;4.65;3.03;;;;;;;;;;5048545;28;20021;-64
2021/11/04 08:26:15;;;;;;;11.38;6.82;;;;;;;;;;5050272;28;20029;-64
2021/11/04 08:28:41;;;;;;;13.75;5.07;;;;;;;;;;5047942;28;20024;-64
2021/11/04 08:31:07;;;;;;;8.38;5.90;;;;;;;;;;5047528;28;20034;-64
2021/11/04 08:33:33;;;;;;;7.82;4.38;;;;;;;;;;5049323;28;20052;-64
2021/11/04 08:35:59;;;;;;;9.73;7.22;;;;;;;;;;5052441;28;20127;-64
2021/11/04 08:38:25;;;;;;;7.68;4.13;;;;;;;;;;5048188;28;20163;-64
2021/11/04 08:40:51;;;;;;;3.63;1.73;;;;;;;;;;5047920;28;20716;-64
2021/11/04 08:43:17;;;;;;;2.60;1.52;;;;;;;;;;5047518;28;20025;-63
2021/11/04 08:45:43;;;;;;;4.63;1.67;;;;;;;;;;5058629;28;20406;-64
2021/11/04 08:48:09;;;;;;;1.92;1.23;;;;;;;;;;5050547;28;20029;-64
2021/11/04 08:50:35;;;;;;;2.28;1.45;;;;;;;;;;5047805;28;20041;-64
2021/11/04 08:53:01;;;;;;;3.15;1.45;;;;;;;;;;5049340;28;20162;-66
2021/11/04 08:55:27;;;;;;;3.20;1.60;;;;;;;;;;5049460;28;20074;-65
2021/11/04 08:57:54;;;;;;;4.32;1.40;;;;;;;;;;5047702;28;20485;-66
2021/11/04 09:00:20;;;;;;;3.25;1.77;;;;;;;;;;5050347;28;20078;-66
2021/11/04 09:02:47;;;;;;;2.60;1.40;;;;;;;;;;5048447;28;20025;-66
2021/11/04 09:05:13;;;;;;;4.32;1.67;;;;;;;;;;5047602;28;20491;-66
2021/11/04 09:07:40;;;;;;;1.85;1.15;;;;;;;;;;5047693;28;20029;-66
2021/11/04 09:10:07;;;;;;;1.67;1.30;;;;;;;;;;5042016;28;20032;-65
2021/11/04 09:12:34;;;;;;;3.38;1.70;;;;;;;;;;5048740;28;20024;-66
2021/11/04 09:15:01;;;;;;;6.07;2.42;;;;;;;;;;5049495;28;20524;-66
2021/11/04 09:17:27;;;;;;;0.82;0.57;;;;;;;;;;5046602;28;20079;-66
2021/11/04 09:19:53;;;;;;;1.48;1.08;;;;;;;;;;5045501;28;20025;-66
2021/11/04 09:22:20;;;;;;;1.95;0.90;;;;;;;;;;5047680;28;20017;-66
2021/11/04 09:24:46;;;;;;;1.27;0.90;;;;;;;;;;5031455;28;20056;-66
2021/11/04 09:27:12;;;;;;;2.25;0.70;;;;;;;;;;5053038;28;20542;-66
2021/11/04 09:29:39;;;;;;;1.00;0.77;;;;;;;;;;5047592;28;20045;-66
2021/11/04 09:32:06;;;;;;;2.55;0.70;;;;;;;;;;5037368;28;20021;-66
2021/11/04 09:34:32;;;;;;;2.67;1.50;;;;;;;;;;5041933;28;20476;-65
2021/11/04 09:36:58;;;;;;;2.55;1.00;;;;;;;;;;5048970;28;20083;-66
2021/11/04 09:39:24;;;;;;;0.82;0.50;;;;;;;;;;5048950;28;20115;-66
2021/11/04 09:41:50;;;;;;;5.10;0.70;;;;;;;;;;5051293;28;20370;-66
2021/11/04 09:44:18;;;;;;;3.60;0.60;;;;;;;;;;5046276;28;20861;-67
2021/11/04 09:46:44;;;;;;;1.48;0.65;;;;;;;;;;5043733;28;20058;-65
2021/11/04 09:49:10;;;;;;;1.25;0.70;;;;;;;;;;5048365;28;20041;-66
2021/11/04 09:51:36;;;;;;;1.10;0.40;;;;;;;;;;5050195;28;20033;-66
2021/11/04 09:54:03;;;;;;;0.73;0.50;;;;;;;;;;5063283;28;20132;-66
2021/11/04 09:56:29;;;;;;;1.00;0.60;;;;;;;;;;5047346;28;20036;-66
2021/11/04 09:58:55;;;;;;;1.60;0.65;;;;;;;;;;5048659;28;20033;-66
2021/11/04 10:01:28;;;;;;;2.35;0.68;;;;;;;;;;5056831;28;20025;-67
2021/11/04 10:03:55;;;;;;;5.00;0.98;;;;;;;;;;5057188;28;20116;-65
2021/11/04 10:06:22;;;;;;;5.18;2.47;;;;;;;;;;5052368;28;20469;-64
2021/11/04 10:08:52;;;;;;;5.75;2.10;;;;;;;;;;5039250;28;20029;-66
2021/11/04 10:11:18;;;;;;;2.58;1.20;;;;;;;;;;5048413;28;20033;-66
2021/11/04 10:13:45;;;;;;;1.73;0.80;;;;;;;;;;5047896;28;20106;-69
2021/11/04 10:16:13;;;;;;;2.17;0.68;;;;;;;;;;5049764;28;20040;-67
2021/11/04 10:18:43;;;;;;;1.30;0.88;;;;;;;;;;5060901;28;20148;-67
2021/11/04 10:21:09;;;;;;;1.40;0.82;;;;;;;;;;5053608;28;20100;-67
2021/11/04 10:23:45;;;;;;;2.15;0.77;;;;;;;;;;5033720;28;20366;-67
2021/11/04 10:26:13;;;;;;;2.20;1.05;;;;;;;;;;5050386;28;20032;-67
2021/11/04 10:28:41;;;;;;;1.08;0.70;;;;;;;;;;5049995;28;20374;-67
2021/11/04 10:31:09;;;;;;;3.50;0.60;;;;;;;;;;5050502;28;20017;-67
2021/11/04 10:33:36;;;;;;;0.90;0.50;;;;;;;;;;5051435;28;20052;-67
2021/11/04 10:36:02;;;;;;;1.00;0.43;;;;;;;;;;5044724;28;20032;-66
2021/11/04 10:38:33;;;;;;;2.78;0.60;;;;;;;;;;5045483;28;20075;-67
2021/11/04 10:40:59;;;;;;;1.00;0.70;;;;;;;;;;5049709;28;20032;-70
2021/11/04 10:43:25;;;;;;;0.98;0.50;;;;;;;;;;5049792;28;20141;-70
2021/11/04 10:46:12;;;;;;;1.17;0.60;;;;;;;;;;5056015;28;20025;-71
2021/11/04 10:48:39;;;;;;;1.45;0.70;;;;;;;;;;5058152;28;20036;-72
2021/11/04 10:51:05;;;;;;;1.17;0.70;;;;;;;;;;5040943;28;20055;-72
2021/11/04 10:53:31;;;;;;;3.03;0.65;;;;;;;;;;5049026;28;20540;-71
2021/11/04 10:56:12;;;;;;;2.25;0.60;;;;;;;;;;5051130;28;20443;-71
2021/11/04 10:58:38;;;;;;;0.68;0.45;;;;;;;;;;5049366;28;20055;-69
2021/11/04 11:01:04;;;;;;;1.52;0.40;;;;;;;;;;5050021;28;20053;-71
2021/11/04 11:03:31;;;;;;;1.48;0.50;;;;;;;;;;5035453;28;20055;-72
2021/11/04 11:05:59;;;;;;;1.02;0.43;;;;;;;;;;5051466;28;20033;-70
2021/11/04 11:08:26;;;;;;;1.75;0.55;;;;;;;;;;5050025;28;20017;-70
2021/11/04 11:10:52;;;;;;;2.30;0.57;;;;;;;;;;5049023;28;20113;-70
2021/11/04 11:13:18;;;;;;;1.48;0.50;;;;;;;;;;5047993;28;20025;-69
2021/11/04 11:15:45;;;;;;;2.50;0.40;;;;;;;;;;5040585;28;20032;-68
2021/11/04 11:18:12;;;;;;;1.55;0.47;;;;;;;;;;5060344;28;20055;-68
2021/11/04 11:20:43;;;;;;;3.03;0.50;;;;;;;;;;5056786;28;20027;-68
2021/11/04 11:23:11;;;;;;;1.45;0.40;;;;;;;;;;5054377;28;20017;-68
2021/11/04 11:25:37;;;;;;;1.75;0.68;;;;;;;;;;5042325;28;20032;-68
2021/11/04 11:28:04;;;;;;;1.42;0.47;;;;;;;;;;5042553;28;20087;-67
2021/11/04 11:30:30;;;;;;;0.98;0.50;;;;;;;;;;5049029;28;20493;-68
2021/11/04 11:33:14;;;;;;;1.20;0.63;;;;;;;;;;5049174;28;20397;-68
2021/11/04 11:35:42;;;;;;;0.90;0.40;;;;;;;;;;5046758;28;20119;-68
2021/11/04 11:38:08;;;;;;;0.77;0.50;;;;;;;;;;5050015;28;20013;-68
2021/11/04 11:40:35;;;;;;;2.53;0.63;;;;;;;;;;5047752;28;20056;-68
2021/11/04 11:43:03;;;;;;;1.67;0.50;;;;;;;;;;5050070;28;20021;-68
2021/11/04 11:45:33;;;;;;;0.88;0.65;;;;;;;;;;5050640;28;20024;-69
2021/11/04 11:48:18;;;;;;;3.70;0.73;;;;;;;;;;5052514;28;20024;-67
2021/11/04 11:50:45;;;;;;;1.98;0.40;;;;;;;;;;5051106;28;20055;-67
2021/11/04 11:53:25;;;;;;;0.73;0.30;;;;;;;;;;5047660;28;20025;-67
2021/11/04 11:55:55;;;;;;;1.90;0.50;;;;;;;;;;5045212;28;20021;-67
2021/11/04 11:58:22;;;;;;;3.78;0.68;;;;;;;;;;5048854;28;20384;-67
2021/11/04 12:01:07;;;;;;;0.50;0.50;;;;;;;;;;5049950;28;20131;-67
2021/11/04 12:03:35;;;;;;;1.15;0.38;;;;;;;;;;5046589;28;20052;-67
2021/11/04 12:06:01;;;;;;;1.27;0.40;;;;;;;;;;5051588;28;20083;-67
2021/11/04 12:08:27;;;;;;;1.27;0.50;;;;;;;;;;5044719;28;20068;-69
2021/11/04 12:10:53;;;;;;;3.67;0.80;;;;;;;;;;5038371;28;20061;-69
2021/11/04 12:13:38;;;;;;;0.80;0.55;;;;;;;;;;5047929;28;20025;-67
2021/11/04 12:16:20;;;;;;;1.05;0.50;;;;;;;;;;5034756;28;20029;-67
2021/11/04 12:19:00;;;;;;;2.15;0.47;;;;;;;;;;5039318;28;20601;-69
2021/11/04 12:21:26;;;;;;;0.80;0.50;;;;;;;;;;5047882;28;20028;-69
2021/11/04 12:23:53;;;;;;;1.08;0.50;;;;;;;;;;5048084;28;20025;-69
2021/11/04 12:26:39;;;;;;;0.73;0.60;;;;;;;;;;5049549;28;20481;-68
2021/11/04 12:29:05;;;;;;;1.38;0.50;;;;;;;;;;5037034;28;20454;-69
2021/11/04 12:31:32;;;;;;;2.83;1.30;;;;;;;;;;5047778;28;20044;-69
2021/11/04 12:34:01;;;;;;;2.28;1.20;;;;;;;;;;5047370;28;20068;-69
2021/11/04 12:36:32;;;;;;;3.70;1.33;;;;;;;;;;5049665;28;20052;-68
2021/11/04 12:38:58;;;;;;;1.90;1.20;;;;;;;;;;5043084;28;20112;-69
2021/11/04 12:41:24;;;;;;;3.50;0.85;;;;;;;;;;5039117;28;20033;-69
2021/11/04 12:43:51;;;;;;;3.13;1.02;;;;;;;;;;5025835;28;20029;-68
2021/11/04 12:46:25;;;;;;;1.50;0.90;;;;;;;;;;5046125;28;20509;-67
2021/11/04 12:48:54;;;;;;;3.60;0.80;;;;;;;;;;5044657;28;20048;-67
2021/11/04 12:51:20;;;;;;;2.28;1.00;;;;;;;;;;5048171;28;20449;-67
2021/11/04 12:53:49;;;;;;;1.20;0.60;;;;;;;;;;5056106;28;20059;-67
2021/11/04 12:56:15;;;;;;;2.40;0.60;;;;;;;;;;5050924;28;20035;-68
2021/11/04 12:58:41;;;;;;;4.03;0.60;;;;;;;;;;5047800;28;20492;-67
2021/11/04 13:01:07;;;;;;;1.52;0.80;;;;;;;;;;5046327;28;20026;-68
2021/11/04 13:03:35;;;;;;;1.25;0.80;;;;;;;;;;5048864;28;20438;-68
2021/11/04 13:06:01;;;;;;;1.03;0.67;;;;;;;;;;5050383;28;20029;-67
2021/11/04 13:08:29;;;;;;;3.33;0.80;;;;;;;;;;5050700;28;20312;-68
2021/11/04 13:10:55;;;;;;;;;;;;;;;;;;5049066;28;20154;-65
2021/11/04 13:13:24;;;;;;;1.42;0.70;;;;;;;;;;5062905;28;19913;-68
2021/11/04 13:15:50;;;;;;;2.47;1.17;;;;;;;;;;5047991;28;20032;-68
2021/11/04 13:18:16;;;;;;;1.20;0.90;;;;;;;;;;5050481;28;20075;-68
2021/11/04 13:20:43;;;;;;;0.73;0.60;;;;;;;;;;5050262;28;20021;-68
2021/11/04 13:23:25;;;;;;;2.33;1.07;;;;;;;;;;5056657;28;20075;-68
2021/11/04 13:25:53;;;;;;;1.98;1.10;;;;;;;;;;5049787;28;20079;-68
2021/11/04 13:28:19;;;;;;;;;;;;;;;;;;5046161;28;20029;-66
2021/11/04 13:30:53;;;;;;;2.10;1.02;;;;;;;;;;5046352;28;19931;-68
2021/11/04 13:33:21;;;;;;;1.42;0.80;;;;;;;;;;5053578;28;20041;-67
2021/11/04 13:35:47;;;;;;;1.92;0.80;;;;;;;;;;5048045;28;20060;-67
2021/11/04 13:38:15;;;;;;;5.50;1.20;;;;;;;;;;5042482;28;20055;-67
2021/11/04 13:40:46;;;;;;;5.25;1.60;;;;;;;;;;5046665;28;20112;-67
2021/11/04 13:43:14;;;;;;;9.00;4.82;;;;;;;;;;5057865;28;20028;-67
2021/11/04 13:45:42;;;;;;;2.63;1.25;;;;;;;;;;5048566;28;20025;-67
2021/11/04 13:48:08;;;;;;;2.77;1.20;;;;;;;;;;5049895;28;20027;-67
2021/11/04 13:50:36;;;;;;;2.60;1.27;;;;;;;;;;5045303;28;20032;-67
2021/11/04 13:53:11;;;;;;;3.65;1.10;;;;;;;;;;5049282;28;20500;-67
2021/11/04 13:55:37;;;;;;;1.95;1.17;;;;;;;;;;5047310;28;20083;-67
2021/11/04 13:58:03;;;;;;;2.45;1.00;;;;;;;;;;5045796;28;20342;-67
2021/11/04 14:00:32;;;;;;;1.73;1.10;;;;;;;;;;5048779;28;20054;-67
2021/11/04 14:03:05;;;;;;;3.45;1.27;;;;;;;;;;5051618;28;20025;-67
2021/11/04 14:05:50;;;;;;;1.45;1.05;;;;;;;;;;5046667;28;20032;-67
2021/11/04 14:08:19;;;;;;;2.88;1.08;;;;;;;;;;5048371;28;20036;-67
2021/11/04 14:10:45;;;;;;;2.45;0.90;;;;;;;;;;5046998;28;20029;-67
2021/11/04 14:13:11;;;;;;;4.97;1.00;;;;;;;;;;5047212;28;20025;-67
2021/11/04 14:15:38;;;;;;;2.47;1.15;;;;;;;;;;5048931;28;20163;-67
2021/11/04 14:18:05;;;;;;;2.88;1.08;;;;;;;;;;5048858;28;20500;-67
2021/11/04 14:20:33;;;;;;;2.83;0.90;;;;;;;;;;5047086;28;20032;-67
2021/11/04 14:22:59;;;;;;;;;;;;;;;;;;5047191;28;20104;-67
2021/11/04 14:25:26;;;;;;;4.68;1.00;;;;;;;;;;5047856;28;20058;-67
2021/11/04 14:27:53;;;;;;;2.60;0.80;;;;;;;;;;5050278;28;20025;-67
2021/11/04 14:30:20;;;;;;;7.53;1.55;;;;;;;;;;5052052;28;20033;-67
2021/11/04 14:32:46;;;;;;;2.75;0.75;;;;;;;;;;5050848;28;20056;-67
2021/11/04 14:35:12;;;;;;;2.53;0.90;;;;;;;;;;5050625;28;20032;-67
2021/11/04 14:37:38;;;;;;;2.53;0.80;;;;;;;;;;5050606;28;20396;-67
2021/11/04 14:40:04;;;;;;;3.53;0.65;;;;;;;;;;5049985;28;20025;-68
2021/11/04 14:42:31;;;;;;;2.72;1.20;;;;;;;;;;5052729;28;20033;-67
2021/11/04 14:44:57;;;;;;;1.75;1.05;;;;;;;;;;5050360;28;20025;-67